Time;durP1;ratioP1;P1;durP2;ratioP2;P2;SDS_P1;SDS_P2;PMS_P1;PMS_P2;Temp;Humidity;BMP_temperature;BMP_pressure;BME280_temperature;BME280_humidity;BME280_pressure;Samples;Min_cycle;Max_cycle;Signal;HPM_P1;HPM_P2
2024/02/02 00:00:44;;;;;;;2.60;2.40;;;;;;;3.03;100.00;94419.63;2073061;28;20056;-79
2024/02/02 00:01:45;;;;;;;3.10;2.78;;;;;;;3.10;100.00;94418.28;2071381;28;20111;-80
2024/02/02 00:02:46;;;;;;;3.13;2.63;;;;;;;3.18;100.00;94430.59;2062052;28;20416;-81
2024/02/02 00:03:47;;;;;;;4.63;2.88;;;;;;;3.19;100.00;94422.31;2062510;28;20149;-82
2024/02/02 00:04:48;;;;;;;4.05;2.67;;;;;;;3.24;100.00;94424.72;2072909;28;20053;-80
2024/02/02 00:05:49;;;;;;;3.08;2.70;;;;;;;3.00;100.00;94427.47;2074979;28;20046;-79
2024/02/02 00:06:50;;;;;;;4.07;3.10;;;;;;;3.09;100.00;94424.69;2068513;28;20025;-80
2024/02/02 00:07:51;;;;;;;2.97;2.67;;;;;;;2.97;100.00;94422.84;2071053;28;20032;-80
2024/02/02 00:08:52;;;;;;;3.60;2.55;;;;;;;3.14;100.00;94425.19;2066698;28;20776;-80
2024/02/02 00:09:53;;;;;;;4.80;3.08;;;;;;;3.24;100.00;94414.16;2061629;28;20104;-82
2024/02/02 00:10:55;;;;;;;3.45;3.15;;;;;;;3.09;100.00;94424.69;2081023;28;20021;-80
2024/02/02 00:11:56;;;;;;;3.25;2.67;;;;;;;3.29;100.00;94418.41;2072822;28;20116;-79
2024/02/02 00:12:57;;;;;;;3.90;3.28;;;;;;;3.24;100.00;94421.31;2072755;28;20034;-77
2024/02/02 00:13:58;;;;;;;3.72;3.05;;;;;;;3.40;100.00;94416.06;2064842;28;20041;-82
2024/02/02 00:14:59;;;;;;;5.20;3.00;;;;;;;3.34;100.00;94409.50;2072827;28;20455;-82
2024/02/02 00:16:00;;;;;;;3.30;2.88;;;;;;;3.42;100.00;94411.97;2080838;28;20031;-80
2024/02/02 00:17:01;;;;;;;3.20;2.90;;;;;;;3.37;100.00;94414.09;2063693;28;20521;-78
2024/02/02 00:18:03;;;;;;;3.58;3.15;;;;;;;3.37;100.00;94411.47;2056519;28;20027;-80
2024/02/02 00:19:04;;;;;;;3.00;2.70;;;;;;;3.38;100.00;94419.06;2056829;28;20050;-79
2024/02/02 00:20:06;;;;;;;3.40;3.10;;;;;;;3.41;100.00;94412.31;2064531;28;20026;-81
2024/02/02 00:21:06;;;;;;;4.22;2.88;;;;;;;3.26;100.00;94419.13;2060486;28;20030;-79
2024/02/02 00:22:08;;;;;;;3.28;2.78;;;;;;;3.26;100.00;94417.22;2070200;28;20475;-77
2024/02/02 00:23:09;;;;;;;3.08;2.78;;;;;;;3.23;100.00;94419.78;2073202;28;20033;-78
2024/02/02 00:24:10;;;;;;;3.50;3.20;;;;;;;3.28;100.00;94419.53;2080557;28;20030;-78
2024/02/02 00:25:11;;;;;;;3.58;3.28;;;;;;;3.25;100.00;94418.34;2064659;28;20061;-77
2024/02/02 00:26:11;;;;;;;3.45;3.10;;;;;;;3.29;100.00;94423.69;2064247;28;20481;-81
2024/02/02 00:27:14;;;;;;;3.00;2.58;;;;;;;3.23;100.00;94427.69;2073518;28;20029;-79
2024/02/02 00:28:15;;;;;;;4.65;3.60;;;;;;;3.27;100.00;94418.00;2070516;28;20602;-81
2024/02/02 00:29:17;;;;;;;5.07;3.53;;;;;;;3.18;100.00;94412.84;2070924;28;20030;-81
2024/02/02 00:30:18;;;;;;;5.63;4.10;;;;;;;3.12;100.00;94413.44;2078674;28;20029;-81
2024/02/02 00:31:21;;;;;;;4.50;3.72;;;;;;;3.07;100.00;94424.22;2064554;28;20022;-78
2024/02/02 00:32:22;;;;;;;4.75;3.70;;;;;;;2.91;100.00;94411.75;2065046;28;20028;-78
2024/02/02 00:33:23;;;;;;;3.60;3.30;;;;;;;3.08;100.00;94412.59;2079613;28;20379;-80
2024/02/02 00:34:24;;;;;;;5.57;3.35;;;;;;;3.25;100.00;94413.06;2070929;28;20041;-79
2024/02/02 00:35:25;;;;;;;4.80;3.63;;;;;;;3.15;100.00;94418.81;2056553;28;21133;-83
2024/02/02 00:36:26;;;;;;;4.80;3.55;;;;;;;3.00;100.00;94412.38;2072760;28;20037;-81
2024/02/02 00:37:27;;;;;;;3.67;3.03;;;;;;;3.17;100.00;94410.56;2073133;28;20049;-82
2024/02/02 00:38:28;;;;;;;5.18;3.83;;;;;;;3.24;100.00;94408.09;2064772;28;20018;-80
2024/02/02 00:39:29;;;;;;;3.60;3.30;;;;;;;3.28;100.00;94407.09;2072606;28;20025;-81
2024/02/02 00:40:30;;;;;;;5.28;3.88;;;;;;;3.21;100.00;94408.78;2080843;28;20029;-81
2024/02/02 00:41:31;;;;;;;3.88;3.40;;;;;;;3.20;100.00;94412.50;2081027;28;20557;-81
2024/02/02 00:42:32;;;;;;;3.63;3.22;;;;;;;3.14;100.00;94414.63;2080908;28;20030;-80
2024/02/02 00:43:34;;;;;;;3.50;3.17;;;;;;;3.28;100.00;94411.59;2078568;28;20041;-80
2024/02/02 00:44:35;;;;;;;5.70;3.80;;;;;;;3.33;100.00;94414.00;2072963;28;20034;-77
2024/02/02 00:45:36;;;;;;;5.45;3.70;;;;;;;3.34;100.00;94420.06;2071399;28;20022;-80
2024/02/02 00:46:37;;;;;;;3.95;3.40;;;;;;;3.34;100.00;94422.72;2062973;28;20038;-81
2024/02/02 00:47:39;;;;;;;3.80;3.40;;;;;;;3.12;100.00;94419.50;2080352;28;20029;-80
2024/02/02 00:48:40;;;;;;;4.53;3.50;;;;;;;3.30;100.00;94427.91;2088835;28;20507;-79
2024/02/02 00:49:41;;;;;;;4.55;3.47;;;;;;;3.36;100.00;94428.41;2072610;28;20026;-78
2024/02/02 00:50:42;;;;;;;4.03;3.33;;;;;;;3.47;100.00;94424.97;2082375;28;20061;-79
2024/02/02 00:51:43;;;;;;;6.03;3.60;;;;;;;3.54;100.00;94429.66;2079240;28;20099;-79
2024/02/02 00:52:44;;;;;;;4.82;3.45;;;;;;;3.45;100.00;94427.16;2074308;28;20465;-79
2024/02/02 00:53:45;;;;;;;3.38;3.08;;;;;;;3.39;100.00;94425.88;2089860;28;20020;-80
2024/02/02 00:54:46;;;;;;;4.57;3.28;;;;;;;3.36;100.00;94431.84;2090511;28;20028;-82
2024/02/02 00:55:47;;;;;;;3.95;3.50;;;;;;;3.64;100.00;94431.78;2074312;28;20021;-79
2024/02/02 00:56:48;;;;;;;3.78;3.28;;;;;;;3.49;100.00;94428.03;2082262;28;20112;-80
2024/02/02 00:57:49;;;;;;;4.43;3.63;;;;;;;3.53;100.00;94426.25;2076744;28;20021;-79
2024/02/02 00:58:49;;;;;;;3.80;3.20;;;;;;;3.47;100.00;94424.97;2089881;28;20029;-82
2024/02/02 00:59:52;;;;;;;5.07;3.58;;;;;;;3.40;100.00;94419.47;2090768;28;20025;-79
2024/02/02 01:00:53;;;;;;;4.10;3.40;;;;;;;3.12;100.00;94418.72;2091051;28;20079;-80
2024/02/02 01:01:54;;;;;;;4.07;3.55;;;;;;;3.32;100.00;94417.75;2082216;28;20029;-81
2024/02/02 01:02:55;;;;;;;5.78;3.80;;;;;;;3.30;100.00;94422.63;2080978;28;20037;-80
2024/02/02 01:03:57;;;;;;;4.05;3.65;;;;;;;3.30;100.00;94421.84;2089287;28;20542;-81
2024/02/02 01:04:58;;;;;;;4.80;3.38;;;;;;;3.34;100.00;94423.47;2084574;28;20112;-81
2024/02/02 01:06:00;;;;;;;4.28;3.45;;;;;;;3.30;100.00;94411.28;2090350;28;20070;-79
2024/02/02 01:07:01;;;;;;;5.68;4.00;;;;;;;3.26;100.00;94413.81;2082244;28;20101;-79
2024/02/02 01:08:10;;;;;;;4.10;3.70;;;;;;;3.27;100.00;94415.34;2082029;28;20721;-81
2024/02/02 01:09:11;;;;;;;4.50;3.92;;;;;;;3.37;100.00;94409.56;2069583;28;20483;-79
2024/02/02 01:10:16;;;;;;;5.72;4.15;;;;;;;3.37;100.00;94425.44;2067905;28;20499;-78
2024/02/02 01:11:19;;;;;;;7.07;4.53;;;;;;;3.39;100.00;94417.94;2011927;28;20037;-82
2024/02/02 01:12:20;;;;;;;4.45;3.78;;;;;;;3.38;100.00;94421.72;1991392;28;20530;-78
2024/02/02 01:13:21;;;;;;;4.18;3.63;;;;;;;3.37;100.00;94411.47;2004342;28;20033;-81
2024/02/02 01:14:22;;;;;;;4.45;3.67;;;;;;;3.37;100.00;94414.09;2004374;28;20041;-79
2024/02/02 01:15:23;;;;;;;5.00;4.10;;;;;;;3.28;100.00;94416.88;2004485;28;20152;-78
2024/02/02 01:16:24;;;;;;;5.93;4.05;;;;;;;3.24;100.00;94418.66;1996574;28;20136;-78
2024/02/02 01:17:25;;;;;;;6.32;3.88;;;;;;;3.32;100.00;94412.47;2016090;28;20029;-78
2024/02/02 01:18:26;;;;;;;4.00;3.60;;;;;;;3.38;100.00;94418.28;2018511;28;20036;-80
2024/02/02 01:19:26;;;;;;;4.25;3.80;;;;;;;3.28;100.00;94416.88;2028294;28;20036;-79
2024/02/02 01:20:28;;;;;;;4.10;3.70;;;;;;;3.32;100.00;94411.69;2025298;28;20179;-79
2024/02/02 01:21:33;;;;;;;3.63;3.28;;;;;;;3.28;100.00;94407.09;2020036;28;22480;-79
2024/02/02 01:22:34;;;;;;;4.50;3.55;;;;;;;3.20;100.00;94407.22;2044441;28;20167;-81
2024/02/02 01:23:35;;;;;;;4.03;3.65;;;;;;;3.22;100.00;94405.81;2048782;28;20144;-78
2024/02/02 01:24:36;;;;;;;3.97;3.40;;;;;;;3.24;100.00;94406.22;2045979;28;20551;-80
2024/02/02 01:25:37;;;;;;;3.92;3.53;;;;;;;3.15;100.00;94416.16;2044214;28;20026;-78
2024/02/02 01:26:38;;;;;;;4.13;3.72;;;;;;;3.04;100.00;94401.91;2058773;28;20719;-80
2024/02/02 01:27:39;;;;;;;4.45;3.60;;;;;;;3.03;100.00;94403.78;2052553;28;20029;-79
2024/02/02 01:28:40;;;;;;;5.40;3.50;;;;;;;3.09;100.00;94401.66;2065724;28;20036;-79
2024/02/02 01:29:41;;;;;;;3.97;3.55;;;;;;;3.18;100.00;94406.81;2082797;28;20051;-78
2024/02/02 01:30:42;;;;;;;4.13;3.50;;;;;;;3.19;100.00;94406.47;2068368;28;20033;-79
2024/02/02 01:31:43;;;;;;;4.53;3.80;;;;;;;3.16;100.00;94401.88;2073468;28;20555;-79
2024/02/02 01:32:44;;;;;;;4.72;3.40;;;;;;;3.13;100.00;94399.91;2080935;28;20048;-80
2024/02/02 01:33:45;;;;;;;4.28;3.78;;;;;;;3.08;100.00;94408.06;2073613;28;20026;-76
2024/02/02 01:34:46;;;;;;;4.28;3.53;;;;;;;2.92;100.00;94394.78;2080226;28;20048;-79
2024/02/02 01:35:47;;;;;;;4.13;3.65;;;;;;;2.92;100.00;94392.16;2081868;28;20084;-79
2024/02/02 01:36:48;;;;;;;4.18;3.65;;;;;;;3.05;100.00;94400.03;2074041;28;20025;-78
2024/02/02 01:37:49;;;;;;;6.00;3.92;;;;;;;2.99;100.00;94396.88;2082075;28;20492;-81
2024/02/02 01:38:50;;;;;;;8.07;3.83;;;;;;;3.05;100.00;94392.88;2090140;28;20108;-81
2024/02/02 01:39:51;;;;;;;6.72;3.50;;;;;;;2.94;100.00;94383.88;2081456;28;20123;-81
2024/02/02 01:40:52;;;;;;;5.57;4.10;;;;;;;2.93;100.00;94387.63;2080953;28;20136;-81
2024/02/02 01:41:54;;;;;;;4.95;3.97;;;;;;;2.95;100.00;94382.81;2073832;28;20049;-78
2024/02/02 01:42:54;;;;;;;4.80;3.63;;;;;;;2.75;100.00;94392.41;2073404;28;20028;-78
2024/02/02 01:43:55;;;;;;;4.82;4.32;;;;;;;2.53;100.00;94389.16;2087645;28;20033;-80
2024/02/02 01:44:56;;;;;;;5.22;3.88;;;;;;;2.58;100.00;94387.41;2081967;28;20025;-79
2024/02/02 01:45:57;;;;;;;4.20;3.58;;;;;;;2.54;100.00;94384.66;2073969;28;20164;-80
2024/02/02 01:46:58;;;;;;;4.28;3.50;;;;;;;2.61;100.00;94382.22;2072519;28;20072;-80
2024/02/02 01:48:00;;;;;;;4.13;3.65;;;;;;;2.61;100.00;94384.09;2074085;28;20018;-81
2024/02/02 01:49:01;;;;;;;7.03;4.50;;;;;;;2.66;100.00;94384.63;2089524;28;20017;-80
2024/02/02 01:50:02;;;;;;;4.65;3.75;;;;;;;2.65;100.00;94385.75;2077352;28;20029;-80
2024/02/02 01:51:03;;;;;;;4.03;3.53;;;;;;;2.70;100.00;94382.09;2073655;28;20026;-79
2024/02/02 01:52:05;;;;;;;4.57;3.65;;;;;;;2.63;100.00;94376.59;2081961;28;20021;-81
2024/02/02 01:53:06;;;;;;;3.65;3.33;;;;;;;2.65;100.00;94371.78;2090069;28;20738;-79
2024/02/02 01:54:07;;;;;;;5.07;3.25;;;;;;;2.59;100.00;94375.72;2081845;28;20184;-80
2024/02/02 01:55:09;;;;;;;4.40;3.60;;;;;;;2.54;100.00;94379.38;2074007;28;20025;-80
2024/02/02 01:56:10;;;;;;;5.57;3.65;;;;;;;2.62;100.00;94378.47;2081598;28;20021;-78
2024/02/02 01:57:11;;;;;;;8.55;4.35;;;;;;;2.62;100.00;94385.63;2081816;28;20460;-79
2024/02/02 01:58:12;;;;;;;5.57;3.90;;;;;;;2.52;100.00;94385.00;2089041;28;20027;-79
2024/02/02 01:59:14;;;;;;;4.63;3.97;;;;;;;2.57;100.00;94383.22;2080753;28;20025;-78
2024/02/02 02:00:16;;;;;;;5.07;3.80;;;;;;;2.42;100.00;94376.78;2082050;28;20079;-79
2024/02/02 02:01:17;;;;;;;4.57;3.63;;;;;;;2.37;100.00;94388.31;2072967;28;20044;-81
2024/02/02 02:02:18;;;;;;;5.20;3.72;;;;;;;2.39;100.00;94380.84;2073561;28;20480;-77
2024/02/02 02:03:19;;;;;;;6.15;4.10;;;;;;;2.33;100.00;94379.53;2081065;28;20025;-80
2024/02/02 02:04:20;;;;;;;4.93;3.85;;;;;;;2.31;100.00;94389.63;2081903;28;20080;-78
2024/02/02 02:05:21;;;;;;;5.50;4.25;;;;;;;2.16;100.00;94385.03;2067927;28;20025;-76
2024/02/02 02:06:28;;;;;;;4.22;3.35;;;;;;;2.20;100.00;94381.41;2081879;28;20063;-80
2024/02/02 02:07:29;;;;;;;9.43;3.90;;;;;;;2.05;100.00;94382.06;2089973;28;20029;-80
2024/02/02 02:08:30;;;;;;;17.45;3.95;;;;;;;1.86;100.00;94379.97;2080941;28;20387;-78
2024/02/02 02:09:31;;;;;;;18.63;3.72;;;;;;;2.04;100.00;94382.41;2073733;28;20025;-78
2024/02/02 02:10:32;;;;;;;18.90;4.10;;;;;;;2.12;100.00;94373.63;2072377;28;20018;-80
2024/02/02 02:11:33;;;;;;;5.93;3.13;;;;;;;2.11;100.00;94375.50;2088958;28;20024;-78
2024/02/02 02:12:34;;;;;;;12.68;3.38;;;;;;;2.09;100.00;94377.66;2081851;28;20021;-79
2024/02/02 02:13:35;;;;;;;34.55;3.63;;;;;;;1.93;100.00;94380.22;2081630;28;20022;-79
2024/02/02 02:14:36;;;;;;;14.93;3.65;;;;;;;2.07;100.00;94387.78;2086278;28;20029;-81
2024/02/02 02:15:37;;;;;;;17.63;3.20;;;;;;;1.93;100.00;94377.56;2081726;28;20044;-77
2024/02/02 02:16:39;;;;;;;28.45;3.45;;;;;;;2.01;100.00;94379.31;2081679;28;20021;-78
2024/02/02 02:17:40;;;;;;;33.60;3.97;;;;;;;2.03;100.00;94381.63;2071798;28;20083;-80
2024/02/02 02:18:41;;;;;;;16.67;3.45;;;;;;;2.08;100.00;94370.88;2065526;28;20477;-81
2024/02/02 02:19:46;;;;;;;53.80;3.53;;;;;;;2.03;100.00;94371.09;2073539;28;20388;-79
2024/02/02 02:20:53;;;;;;;41.35;3.20;;;;;;;2.05;100.00;94378.66;2073996;28;20033;-79
2024/02/02 02:21:54;;;;;;;28.13;3.03;;;;;;;2.12;100.00;94378.88;2079979;28;20017;-80
2024/02/02 02:22:55;;;;;;;68.72;3.55;;;;;;;2.12;100.00;94368.34;2079600;28;20115;-79
2024/02/02 02:23:56;;;;;;;18.90;2.72;;;;;;;2.13;100.00;94369.88;2065241;28;20024;-80
2024/02/02 02:26:17;;;;;;;28.23;2.60;;;;;;;1.26;100.00;94370.88;2136157;27;20189;-79
2024/02/02 02:27:18;;;;;;;51.40;2.85;;;;;;;1.35;100.00;94371.56;2129770;27;20511;-80
2024/02/02 02:28:19;;;;;;;34.95;2.50;;;;;;;1.36;100.00;94373.13;2129769;27;20015;-81
2024/02/02 02:29:21;;;;;;;38.65;2.58;;;;;;;1.37;100.00;94366.75;2129124;27;20015;-83
2024/02/02 02:30:22;;;;;;;40.72;2.75;;;;;;;1.31;100.00;94375.16;2130039;27;20027;-81
2024/02/02 02:31:23;;;;;;;33.95;2.50;;;;;;;1.37;100.00;94369.38;2113108;28;20027;-82
2024/02/02 02:32:24;;;;;;;30.65;2.55;;;;;;;1.38;100.00;94362.25;2121625;27;20023;-83
2024/02/02 02:33:25;;;;;;;18.90;2.70;;;;;;;1.34;100.00;94367.38;2125207;27;20019;-80
2024/02/02 02:34:26;;;;;;;33.78;2.63;;;;;;;1.49;100.00;94377.31;2120308;28;20053;-82
2024/02/02 02:35:27;;;;;;;43.30;3.40;;;;;;;1.59;100.00;94377.97;2112564;28;20077;-78
2024/02/02 02:36:28;;;;;;;17.38;2.42;;;;;;;1.56;100.00;94381.25;2113024;28;20028;-82
2024/02/02 02:37:30;;;;;;;21.67;2.20;;;;;;;1.51;100.00;94375.09;2121526;28;20047;-80
2024/02/02 02:38:31;;;;;;;31.13;2.90;;;;;;;1.43;100.00;94373.31;2121598;27;20383;-80
2024/02/02 02:39:32;;;;;;;21.92;2.53;;;;;;;1.50;100.00;94370.94;2112573;28;20031;-81
2024/02/02 02:40:33;;;;;;;13.85;2.70;;;;;;;1.52;100.00;94376.63;2104236;28;20074;-81
2024/02/02 02:41:35;;;;;;;10.00;2.63;;;;;;;1.50;100.00;94381.47;2112173;27;20030;-80
2024/02/02 02:42:36;;;;;;;2.88;2.55;;;;;;;1.43;100.00;94375.19;2121469;28;20026;-80
2024/02/02 02:43:37;;;;;;;2.75;2.47;;;;;;;1.43;100.00;94381.22;2111332;28;20019;-81
2024/02/02 02:44:38;;;;;;;22.85;3.35;;;;;;;1.42;100.00;94373.66;2112128;28;20470;-79
2024/02/02 02:45:39;;;;;;;17.30;2.70;;;;;;;1.31;100.00;94372.53;2089899;28;20029;-79
2024/02/02 02:46:40;;;;;;;21.35;2.80;;;;;;;1.24;100.00;94375.72;2094817;28;20095;-80
2024/02/02 02:47:41;;;;;;;13.45;2.45;;;;;;;1.24;100.00;94367.81;2104537;28;20024;-80
2024/02/02 02:48:42;;;;;;;23.95;2.92;;;;;;;1.22;100.00;94375.25;2105655;28;20491;-80
2024/02/02 02:49:43;;;;;;;6.63;2.17;;;;;;;1.36;100.00;94370.47;2100901;28;20024;-80
2024/02/02 02:50:44;;;;;;;8.13;2.60;;;;;;;1.28;100.00;94363.44;2112951;28;20023;-82
2024/02/02 02:51:45;;;;;;;2.88;2.58;;;;;;;1.33;100.00;94368.50;2104647;28;20631;-80
2024/02/02 02:52:46;;;;;;;8.98;2.65;;;;;;;1.32;100.00;94359.06;2096188;28;20029;-81
2024/02/02 02:53:48;;;;;;;16.17;2.58;;;;;;;1.32;100.00;94366.16;2104460;28;20032;-80
2024/02/02 02:54:48;;;;;;;3.72;2.40;;;;;;;1.33;100.00;94365.09;2112668;28;20024;-79
2024/02/02 02:55:50;;;;;;;14.00;2.85;;;;;;;1.15;100.00;94372.38;2121232;28;20092;-82
2024/02/02 02:56:50;;;;;;;6.03;2.35;;;;;;;1.17;100.00;94364.91;2104285;28;20507;-80
2024/02/02 02:57:53;;;;;;;5.90;2.13;;;;;;;1.21;100.00;94353.41;2104335;28;20024;-79
2024/02/02 02:58:54;;;;;;;13.43;2.47;;;;;;;1.09;100.00;94350.75;2111478;28;20066;-79
2024/02/02 02:59:54;;;;;;;22.13;2.47;;;;;;;1.19;100.00;94347.72;2104062;28;20058;-79
2024/02/02 03:00:55;;;;;;;10.88;2.22;;;;;;;1.25;100.00;94346.41;2113009;28;20020;-81
2024/02/02 03:01:58;;;;;;;6.75;2.20;;;;;;;1.34;100.00;94348.19;2121812;27;20015;-80
2024/02/02 03:02:59;;;;;;;14.07;2.30;;;;;;;1.38;100.00;94349.84;2117069;28;20140;-79
2024/02/02 03:04:00;;;;;;;6.53;2.00;;;;;;;1.34;100.00;94351.59;2116567;28;20555;-80
2024/02/02 03:05:01;;;;;;;20.52;2.42;;;;;;;1.48;100.00;94352.03;2112837;28;20038;-81
2024/02/02 03:06:02;;;;;;;7.00;2.10;;;;;;;1.24;100.00;94344.09;2120871;28;20027;-82
2024/02/02 03:07:04;;;;;;;14.15;2.13;;;;;;;1.31;100.00;94346.19;2121228;28;20539;-80
2024/02/02 03:08:06;;;;;;;21.10;2.38;;;;;;;1.38;100.00;94357.75;2121108;28;20022;-81
2024/02/02 03:09:07;;;;;;;22.08;2.58;;;;;;;1.36;100.00;94354.69;2112711;28;20460;-82
2024/02/02 03:10:08;;;;;;;6.43;2.22;;;;;;;1.40;100.00;94360.03;2104535;28;20035;-79
2024/02/02 03:11:09;;;;;;;7.22;1.83;;;;;;;1.31;100.00;94356.72;2106734;28;20135;-80
2024/02/02 03:12:10;;;;;;;14.65;2.85;;;;;;;1.31;100.00;94356.72;2108859;28;20027;-80
2024/02/02 03:13:11;;;;;;;1.98;1.85;;;;;;;1.24;100.00;94362.53;2091559;28;20027;-79
2024/02/02 03:14:13;;;;;;;2.47;2.28;;;;;;;1.20;100.00;94366.91;2111502;28;20053;-82
2024/02/02 03:15:14;;;;;;;4.47;2.20;;;;;;;1.26;100.00;94371.63;2116026;28;20027;-80
2024/02/02 03:16:15;;;;;;;2.17;1.98;;;;;;;1.39;100.00;94367.16;2112432;28;20430;-80
2024/02/02 03:17:16;;;;;;;2.70;2.17;;;;;;;1.34;100.00;94364.75;2118147;28;20019;-81
2024/02/02 03:18:17;;;;;;;2.08;1.80;;;;;;;1.40;100.00;94363.44;2111371;28;20020;-81
2024/02/02 03:19:18;;;;;;;2.20;2.00;;;;;;;1.37;100.00;94365.97;2120871;28;20536;-79
2024/02/02 03:20:19;;;;;;;2.53;1.88;;;;;;;1.36;100.00;94353.88;2121315;28;20121;-80
2024/02/02 03:21:20;;;;;;;2.30;2.10;;;;;;;1.43;100.00;94348.84;2120941;28;20160;-82
2024/02/02 03:22:21;;;;;;;1.83;1.73;;;;;;;1.38;100.00;94347.19;2112554;28;20023;-79
2024/02/02 03:23:22;;;;;;;2.20;1.85;;;;;;;1.42;100.00;94342.81;2102917;28;20850;-79
2024/02/02 03:24:23;;;;;;;2.10;1.90;;;;;;;1.48;100.00;94344.13;2112468;28;20028;-79
2024/02/02 03:25:24;;;;;;;1.98;1.85;;;;;;;1.37;100.00;94348.31;2104087;28;20055;-80
2024/02/02 03:26:25;;;;;;;2.33;1.98;;;;;;;1.43;100.00;94348.84;2095797;28;20029;-80
2024/02/02 03:27:26;;;;;;;2.30;2.03;;;;;;;1.42;100.00;94349.97;2104306;28;20075;-81
2024/02/02 03:28:27;;;;;;;2.15;1.95;;;;;;;1.54;100.00;94357.88;2104284;28;20020;-80
2024/02/02 03:29:28;;;;;;;2.47;1.90;;;;;;;1.43;100.00;94362.03;2104200;28;20027;-80
2024/02/02 03:30:29;;;;;;;2.00;1.80;;;;;;;1.38;100.00;94356.97;2112432;28;20461;-78
2024/02/02 03:31:30;;;;;;;2.30;2.10;;;;;;;1.47;100.00;94353.13;2103908;28;20017;-78
2024/02/02 03:32:31;;;;;;;3.03;2.00;;;;;;;1.47;100.00;94349.75;2095708;28;20032;-81
2024/02/02 03:33:32;;;;;;;3.85;2.00;;;;;;;1.39;100.00;94351.38;2117229;28;20050;-81
2024/02/02 03:34:33;;;;;;;4.32;1.90;;;;;;;1.34;100.00;94350.81;2121047;27;20023;-81
2024/02/02 03:35:34;;;;;;;2.10;1.90;;;;;;;1.59;100.00;94351.63;2119499;28;20107;-79
2024/02/02 03:36:35;;;;;;;2.10;1.90;;;;;;;1.56;100.00;94349.66;2107083;28;20094;-81
2024/02/02 03:37:36;;;;;;;2.28;1.80;;;;;;;1.55;100.00;94348.13;2098836;28;20066;-81
2024/02/02 03:38:37;;;;;;;1.83;1.67;;;;;;;1.46;100.00;94348.22;2098734;28;20028;-80
2024/02/02 03:39:38;;;;;;;2.20;2.00;;;;;;;1.40;100.00;94355.53;2099685;28;20037;-81
2024/02/02 03:40:39;;;;;;;2.20;2.00;;;;;;;1.34;100.00;94353.44;2102230;28;20028;-79
2024/02/02 03:41:40;;;;;;;2.20;1.98;;;;;;;1.55;100.00;94369.19;2102661;28;20047;-81
2024/02/02 03:42:41;;;;;;;2.60;1.80;;;;;;;1.46;100.00;94361.38;2114178;28;20099;-80
2024/02/02 03:43:42;;;;;;;2.05;1.92;;;;;;;1.52;100.00;94365.34;2106852;28;20024;-78
2024/02/02 03:44:43;;;;;;;1.75;1.65;;;;;;;1.54;100.00;94371.06;2106725;28;20050;-81
2024/02/02 03:45:44;;;;;;;2.30;2.10;;;;;;;1.65;100.00;94364.25;2106957;28;20020;-80
2024/02/02 03:46:44;;;;;;;2.15;1.95;;;;;;;1.66;100.00;94362.38;2114144;28;20035;-78
2024/02/02 03:47:46;;;;;;;2.50;2.30;;;;;;;1.62;100.00;94364.13;2106366;28;20032;-79
2024/02/02 03:48:47;;;;;;;2.20;1.95;;;;;;;1.55;100.00;94361.28;2106799;28;20047;-80
2024/02/02 03:49:48;;;;;;;2.00;1.80;;;;;;;1.39;100.00;94372.44;2106734;28;20035;-78
2024/02/02 03:50:49;;;;;;;2.10;1.60;;;;;;;1.47;100.00;94361.03;2115059;28;20082;-81
2024/02/02 03:51:49;;;;;;;2.10;1.90;;;;;;;1.60;100.00;94364.47;2106748;28;20139;-81
2024/02/02 03:52:50;;;;;;;3.30;1.70;;;;;;;1.57;100.00;94361.72;2106862;28;20080;-81
2024/02/02 03:53:51;;;;;;;1.83;1.73;;;;;;;1.51;100.00;94361.16;2099855;28;20027;-79
2024/02/02 03:54:52;;;;;;;2.95;1.70;;;;;;;1.56;100.00;94358.31;2089943;28;20811;-81
2024/02/02 03:55:53;;;;;;;1.70;1.60;;;;;;;1.35;100.00;94357.63;2092126;28;20067;-78
2024/02/02 03:56:54;;;;;;;1.90;1.80;;;;;;;1.31;100.00;94357.50;2114914;28;20034;-80
2024/02/02 03:57:55;;;;;;;2.53;2.33;;;;;;;1.47;100.00;94355.78;2106638;28;20062;-80
2024/02/02 03:58:56;;;;;;;2.30;2.00;;;;;;;1.47;100.00;94349.75;2097313;28;20423;-81
2024/02/02 03:59:57;;;;;;;2.13;1.90;;;;;;;1.57;100.00;94346.66;2114554;28;20047;-81
2024/02/02 04:00:58;;;;;;;2.50;2.10;;;;;;;1.50;100.00;94349.09;2114916;28;20046;-81
2024/02/02 04:01:59;;;;;;;3.33;2.15;;;;;;;1.61;100.00;94355.47;2106808;28;20157;-79
2024/02/02 04:03:00;;;;;;;2.55;2.22;;;;;;;1.63;100.00;94355.91;2106701;28;20020;-81
2024/02/02 04:04:01;;;;;;;2.15;1.95;;;;;;;1.60;100.00;94358.44;2106670;28;20024;-81
2024/02/02 04:05:02;;;;;;;2.97;2.45;;;;;;;1.59;100.00;94346.38;2115245;28;20438;-80
2024/02/02 04:06:03;;;;;;;3.95;3.33;;;;;;;1.55;100.00;94356.78;2115457;28;20407;-80
2024/02/02 04:07:04;;;;;;;3.13;2.30;;;;;;;1.60;100.00;94345.25;2114971;28;20034;-81
2024/02/02 04:08:05;;;;;;;2.63;2.42;;;;;;;1.59;100.00;94349.00;2098238;28;20078;-80
2024/02/02 04:09:08;;;;;;;5.72;3.25;;;;;;;1.59;100.00;94355.03;2090171;28;20029;-80
2024/02/02 04:10:09;;;;;;;2.90;2.50;;;;;;;1.56;100.00;94347.00;2090214;28;20494;-81
2024/02/02 04:11:10;;;;;;;4.13;2.42;;;;;;;1.40;100.00;94345.00;2104476;28;20024;-82
2024/02/02 04:12:11;;;;;;;4.18;2.38;;;;;;;1.37;100.00;94350.16;2106504;28;20023;-81
2024/02/02 04:13:12;;;;;;;2.75;2.50;;;;;;;1.47;100.00;94355.78;2113656;28;20023;-79
2024/02/02 04:14:13;;;;;;;4.07;2.00;;;;;;;1.37;100.00;94353.56;2106640;28;20024;-81
2024/02/02 04:15:14;;;;;;;3.03;2.30;;;;;;;1.36;100.00;94352.03;2098396;28;20096;-81
2024/02/02 04:16:15;;;;;;;2.90;2.20;;;;;;;1.52;100.00;94350.28;2098427;28;20365;-81
2024/02/02 04:17:15;;;;;;;3.03;2.17;;;;;;;1.45;100.00;94347.44;2103830;28;20505;-81
2024/02/02 04:18:16;;;;;;;2.10;1.88;;;;;;;1.49;100.00;94344.91;2100988;28;20079;-80
2024/02/02 04:19:19;;;;;;;2.95;2.40;;;;;;;1.37;100.00;94337.75;2115983;28;20078;-81
2024/02/02 04:20:20;;;;;;;4.53;2.10;;;;;;;1.39;100.00;94329.53;2107588;28;20460;-80
2024/02/02 04:21:27;;;;;;;2.75;2.20;;;;;;;1.32;100.00;94340.63;2089786;28;20032;-80
2024/02/02 04:22:28;;;;;;;2.15;1.90;;;;;;;1.22;100.00;94343.66;2090612;28;20021;-77
2024/02/02 04:23:29;;;;;;;2.53;2.10;;;;;;;1.18;100.00;94342.75;2096975;28;20052;-79
2024/02/02 04:24:30;;;;;;;4.55;2.30;;;;;;;1.39;100.00;94340.06;2089501;28;20470;-79
2024/02/02 04:25:31;;;;;;;2.80;2.50;;;;;;;1.38;100.00;94344.56;2106283;28;20111;-82
2024/02/02 04:26:32;;;;;;;3.47;2.58;;;;;;;1.33;100.00;94347.41;2106532;28;20034;-82
2024/02/02 04:27:34;;;;;;;2.50;2.20;;;;;;;1.42;100.00;94344.69;2106411;28;20024;-80
2024/02/02 04:28:35;;;;;;;4.15;2.53;;;;;;;1.47;100.00;94352.38;2106729;28;20051;-81
2024/02/02 04:29:36;;;;;;;2.53;2.30;;;;;;;1.52;100.00;94358.19;2106632;28;20061;-79
2024/02/02 04:30:37;;;;;;;3.40;2.63;;;;;;;1.37;100.00;94348.31;2114891;28;20023;-79
2024/02/02 04:31:38;;;;;;;3.05;2.38;;;;;;;1.32;100.00;94353.00;2114953;28;20804;-80
2024/02/02 04:32:39;;;;;;;2.78;2.17;;;;;;;1.44;100.00;94350.38;2106535;28;20035;-79
2024/02/02 04:33:40;;;;;;;2.50;2.10;;;;;;;1.37;100.00;94355.44;2106447;28;20090;-80
2024/02/02 04:34:41;;;;;;;2.40;2.08;;;;;;;1.45;100.00;94350.06;2106623;28;20034;-82
2024/02/02 04:35:42;;;;;;;4.60;2.30;;;;;;;1.39;100.00;94353.22;2096690;28;20088;-81
2024/02/02 04:36:43;;;;;;;2.58;2.30;;;;;;;1.28;100.00;94352.13;2098148;28;20025;-80
2024/02/02 04:37:43;;;;;;;4.70;2.55;;;;;;;1.30;100.00;94357.81;2098257;28;20470;-81
2024/02/02 04:38:44;;;;;;;2.65;2.17;;;;;;;1.33;100.00;94355.31;2089826;28;20068;-80
2024/02/02 04:39:45;;;;;;;2.30;2.10;;;;;;;1.41;100.00;94359.72;2098338;28;20024;-80
2024/02/02 04:40:47;;;;;;;2.30;2.10;;;;;;;1.59;100.00;94352.41;2106196;28;20028;-82
2024/02/02 04:41:48;;;;;;;2.30;2.10;;;;;;;1.76;100.00;94354.06;2105079;28;20043;-81
2024/02/02 04:42:49;;;;;;;3.92;2.30;;;;;;;1.67;100.00;94350.75;2104712;28;20546;-79
2024/02/02 04:43:50;;;;;;;2.65;2.22;;;;;;;1.48;100.00;94352.03;2104918;28;20074;-81
2024/02/02 04:44:51;;;;;;;2.95;2.35;;;;;;;1.48;100.00;94352.03;2032473;28;20028;-78
2024/02/02 04:45:52;;;;;;;2.20;2.00;;;;;;;1.58;100.00;94355.34;1923692;28;20067;-80
2024/02/02 04:46:55;;;;;;;3.33;2.60;;;;;;;1.63;100.00;94357.78;2063490;28;20166;-81
2024/02/02 04:47:55;;;;;;;2.58;2.28;;;;;;;1.51;100.00;94348.00;2033009;28;20044;-79
2024/02/02 04:48:56;;;;;;;2.63;2.30;;;;;;;1.59;100.00;94352.41;2074204;28;20031;-79